sensor_id;sensor_type;location;lat;lon;timestamp;temperature;humidity
53776;DHT22;44276;49.534;6.378;2023-02-12T00:01:32;4.80;99.90
53776;DHT22;44276;49.534;6.378;2023-02-12T00:04:01;4.80;99.90
53776;DHT22;44276;49.534;6.378;2023-02-12T00:06:33;4.80;99.90
53776;DHT22;44276;49.534;6.378;2023-02-12T00:09:02;4.80;99.90
53776;DHT22;44276;49.534;6.378;2023-02-12T00:11:30;4.80;99.90
53776;DHT22;44276;49.534;6.378;2023-02-12T00:13:58;4.80;99.90
53776;DHT22;44276;49.534;6.378;2023-02-12T00:16:28;4.70;99.90
53776;DHT22;44276;49.534;6.378;2023-02-12T00:18:58;4.70;99.90
53776;DHT22;44276;49.534;6.378;2023-02-12T00:21:27;4.80;99.90
53776;DHT22;44276;49.534;6.378;2023-02-12T00:23:55;4.80;99.90
53776;DHT22;44276;49.534;6.378;2023-02-12T00:26:24;4.80;99.90
53776;DHT22;44276;49.534;6.378;2023-02-12T00:28:53;4.70;99.90
53776;DHT22;44276;49.534;6.378;2023-02-12T00:31:23;4.70;99.90
53776;DHT22;44276;49.534;6.378;2023-02-12T00:33:53;4.70;99.90
53776;DHT22;44276;49.534;6.378;2023-02-12T00:36:25;4.80;99.90
53776;DHT22;44276;49.534;6.378;2023-02-12T00:38:56;4.70;99.90
53776;DHT22;44276;49.534;6.378;2023-02-12T00:41:25;4.70;99.90
53776;DHT22;44276;49.534;6.378;2023-02-12T00:43:54;4.70;99.90
53776;DHT22;44276;49.534;6.378;2023-02-12T00:46:22;4.70;99.90
53776;DHT22;44276;49.534;6.378;2023-02-12T00:48:50;4.80;99.90
53776;DHT22;44276;49.534;6.378;2023-02-12T00:51:18;4.70;99.90
53776;DHT22;44276;49.534;6.378;2023-02-12T00:53:48;4.70;99.90
53776;DHT22;44276;49.534;6.378;2023-02-12T00:56:17;4.70;99.90
53776;DHT22;44276;49.534;6.378;2023-02-12T00:58:45;4.60;99.90
53776;DHT22;44276;49.534;6.378;2023-02-12T01:01:13;4.60;99.90
53776;DHT22;44276;49.534;6.378;2023-02-12T01:03:43;4.60;99.90
53776;DHT22;44276;49.534;6.378;2023-02-12T01:06:11;4.60;99.90
53776;DHT22;44276;49.534;6.378;2023-02-12T01:08:39;4.60;99.90
53776;DHT22;44276;49.534;6.378;2023-02-12T01:11:11;4.60;99.90
53776;DHT22;44276;49.534;6.378;2023-02-12T01:13:40;4.50;99.90
53776;DHT22;44276;49.534;6.378;2023-02-12T01:16:13;4.50;99.90
53776;DHT22;44276;49.534;6.378;2023-02-12T01:18:44;4.60;99.90
53776;DHT22;44276;49.534;6.378;2023-02-12T01:21:14;4.70;99.90
53776;DHT22;44276;49.534;6.378;2023-02-12T01:23:45;4.70;99.90
53776;DHT22;44276;49.534;6.378;2023-02-12T01:26:17;4.80;99.90
53776;DHT22;44276;49.534;6.378;2023-02-12T01:28:49;4.80;99.90
53776;DHT22;44276;49.534;6.378;2023-02-12T01:31:21;4.80;99.90
53776;DHT22;44276;49.534;6.378;2023-02-12T01:33:52;4.80;99.90
53776;DHT22;44276;49.534;6.378;2023-02-12T01:36:22;4.80;99.90
53776;DHT22;44276;49.534;6.378;2023-02-12T01:38:51;4.80;99.90
53776;DHT22;44276;49.534;6.378;2023-02-12T01:41:22;4.80;99.90
53776;DHT22;44276;49.534;6.378;2023-02-12T01:44:10;4.80;99.90
53776;DHT22;44276;49.534;6.378;2023-02-12T01:46:42;4.80;99.90
53776;DHT22;44276;49.534;6.378;2023-02-12T01:49:14;4.70;99.90
53776;DHT22;44276;49.534;6.378;2023-02-12T01:51:47;4.70;99.90
53776;DHT22;44276;49.534;6.378;2023-02-12T01:54:21;4.70;99.90
53776;DHT22;44276;49.534;6.378;2023-02-12T01:56:54;4.70;99.90
53776;DHT22;44276;49.534;6.378;2023-02-12T01:59:23;4.70;99.90
53776;DHT22;44276;49.534;6.378;2023-02-12T02:01:52;4.70;99.90
53776;DHT22;44276;49.534;6.378;2023-02-12T02:04:24;4.70;99.90
53776;DHT22;44276;49.534;6.378;2023-02-12T02:06:57;4.70;99.90
53776;DHT22;44276;49.534;6.378;2023-02-12T02:09:30;4.70;99.90
53776;DHT22;44276;49.534;6.378;2023-02-12T02:12:03;4.70;99.90
53776;DHT22;44276;49.534;6.378;2023-02-12T02:14:50;4.70;99.90
53776;DHT22;44276;49.534;6.378;2023-02-12T02:17:34;4.70;99.90
53776;DHT22;44276;49.534;6.378;2023-02-12T02:20:35;4.80;99.90
53776;DHT22;44276;49.534;6.378;2023-02-12T02:23:39;4.80;99.90
53776;DHT22;44276;49.534;6.378;2023-02-12T02:26:53;4.70;99.90
53776;DHT22;44276;49.534;6.378;2023-02-12T02:30:21;4.80;99.90
53776;DHT22;44276;49.534;6.378;2023-02-12T02:33:14;4.80;99.90
53776;DHT22;44276;49.534;6.378;2023-02-12T02:36:11;4.80;99.90
53776;DHT22;44276;49.534;6.378;2023-02-12T02:38:49;4.80;99.90
53776;DHT22;44276;49.534;6.378;2023-02-12T02:41:26;4.80;99.90
53776;DHT22;44276;49.534;6.378;2023-02-12T02:44:06;4.80;99.90
53776;DHT22;44276;49.534;6.378;2023-02-12T02:46:43;4.80;99.90
53776;DHT22;44276;49.534;6.378;2023-02-12T02:49:16;4.80;99.90
53776;DHT22;44276;49.534;6.378;2023-02-12T02:51:54;4.80;99.90
53776;DHT22;44276;49.534;6.378;2023-02-12T02:54:31;4.80;99.90
53776;DHT22;44276;49.534;6.378;2023-02-12T02:57:06;4.80;99.90
53776;DHT22;44276;49.534;6.378;2023-02-12T02:59:43;4.80;99.90
53776;DHT22;44276;49.534;6.378;2023-02-12T03:02:22;4.80;99.90
53776;DHT22;44276;49.534;6.378;2023-02-12T03:04:58;4.80;99.90
53776;DHT22;44276;49.534;6.378;2023-02-12T03:07:33;4.80;99.90
53776;DHT22;44276;49.534;6.378;2023-02-12T03:10:09;4.80;99.90
53776;DHT22;44276;49.534;6.378;2023-02-12T03:12:45;4.80;99.90
53776;DHT22;44276;49.534;6.378;2023-02-12T03:15:20;4.80;99.90
53776;DHT22;44276;49.534;6.378;2023-02-12T03:17:58;4.80;99.90
53776;DHT22;44276;49.534;6.378;2023-02-12T03:20:31;4.80;99.90
53776;DHT22;44276;49.534;6.378;2023-02-12T03:23:06;4.80;99.90
53776;DHT22;44276;49.534;6.378;2023-02-12T03:25:41;4.80;99.90
53776;DHT22;44276;49.534;6.378;2023-02-12T03:28:18;4.80;99.90
53776;DHT22;44276;49.534;6.378;2023-02-12T03:30:54;4.80;99.90
53776;DHT22;44276;49.534;6.378;2023-02-12T03:33:39;4.80;99.90
53776;DHT22;44276;49.534;6.378;2023-02-12T03:36:25;4.80;99.90
53776;DHT22;44276;49.534;6.378;2023-02-12T03:39:07;4.80;99.90
53776;DHT22;44276;49.534;6.378;2023-02-12T03:41:42;4.80;99.90
53776;DHT22;44276;49.534;6.378;2023-02-12T03:44:20;4.80;99.90
53776;DHT22;44276;49.534;6.378;2023-02-12T03:46:59;4.80;99.90
53776;DHT22;44276;49.534;6.378;2023-02-12T03:49:40;4.80;99.90
53776;DHT22;44276;49.534;6.378;2023-02-12T03:52:16;4.80;99.90
53776;DHT22;44276;49.534;6.378;2023-02-12T03:54:44;4.80;99.90
53776;DHT22;44276;49.534;6.378;2023-02-12T03:57:16;4.70;99.90
53776;DHT22;44276;49.534;6.378;2023-02-12T03:59:47;4.70;99.90
53776;DHT22;44276;49.534;6.378;2023-02-12T04:02:17;4.70;99.90
53776;DHT22;44276;49.534;6.378;2023-02-12T04:04:48;4.70;99.90
53776;DHT22;44276;49.534;6.378;2023-02-12T04:07:18;4.70;99.90
53776;DHT22;44276;49.534;6.378;2023-02-12T04:09:46;4.70;99.90
53776;DHT22;44276;49.534;6.378;2023-02-12T04:12:25;4.70;99.90
53776;DHT22;44276;49.534;6.378;2023-02-12T04:15:14;4.70;99.90
53776;DHT22;44276;49.534;6.378;2023-02-12T04:18:00;4.60;99.90
53776;DHT22;44276;49.534;6.378;2023-02-12T04:20:43;4.70;99.90
53776;DHT22;44276;49.534;6.378;2023-02-12T04:23:28;4.70;99.90
53776;DHT22;44276;49.534;6.378;2023-02-12T04:26:10;4.70;99.90
53776;DHT22;44276;49.534;6.378;2023-02-12T04:28:56;4.70;99.90
53776;DHT22;44276;49.534;6.378;2023-02-12T04:31:37;4.70;99.90
53776;DHT22;44276;49.534;6.378;2023-02-12T04:34:14;4.70;99.90
53776;DHT22;44276;49.534;6.378;2023-02-12T04:36:52;4.70;99.90
53776;DHT22;44276;49.534;6.378;2023-02-12T04:39:28;4.70;99.90
53776;DHT22;44276;49.534;6.378;2023-02-12T04:41:59;4.70;99.90
53776;DHT22;44276;49.534;6.378;2023-02-12T04:44:29;4.70;99.90
53776;DHT22;44276;49.534;6.378;2023-02-12T04:47:00;4.70;99.90
53776;DHT22;44276;49.534;6.378;2023-02-12T04:49:28;4.70;99.90
53776;DHT22;44276;49.534;6.378;2023-02-12T04:51:57;4.70;99.90
53776;DHT22;44276;49.534;6.378;2023-02-12T04:54:26;4.70;99.90
53776;DHT22;44276;49.534;6.378;2023-02-12T04:56:54;4.70;99.90
53776;DHT22;44276;49.534;6.378;2023-02-12T04:59:22;4.70;99.90
53776;DHT22;44276;49.534;6.378;2023-02-12T05:01:50;4.70;99.90
53776;DHT22;44276;49.534;6.378;2023-02-12T05:04:19;4.70;99.90
53776;DHT22;44276;49.534;6.378;2023-02-12T05:06:47;4.70;99.90
53776;DHT22;44276;49.534;6.378;2023-02-12T05:09:19;4.70;99.90
53776;DHT22;44276;49.534;6.378;2023-02-12T05:11:47;4.70;99.90
53776;DHT22;44276;49.534;6.378;2023-02-12T05:14:15;4.70;99.90
53776;DHT22;44276;49.534;6.378;2023-02-12T05:16:44;4.70;99.90
53776;DHT22;44276;49.534;6.378;2023-02-12T05:19:13;4.70;99.90
53776;DHT22;44276;49.534;6.378;2023-02-12T05:21:41;4.80;99.90
53776;DHT22;44276;49.534;6.378;2023-02-12T05:24:09;4.70;99.90
53776;DHT22;44276;49.534;6.378;2023-02-12T05:26:38;4.70;99.90
53776;DHT22;44276;49.534;6.378;2023-02-12T05:29:07;4.70;99.90
53776;DHT22;44276;49.534;6.378;2023-02-12T05:31:35;4.70;99.90
53776;DHT22;44276;49.534;6.378;2023-02-12T05:34:05;4.70;99.90
53776;DHT22;44276;49.534;6.378;2023-02-12T05:36:37;4.70;99.90
53776;DHT22;44276;49.534;6.378;2023-02-12T05:39:05;4.70;99.90
53776;DHT22;44276;49.534;6.378;2023-02-12T05:41:34;4.70;99.90
53776;DHT22;44276;49.534;6.378;2023-02-12T05:44:04;4.70;99.90
53776;DHT22;44276;49.534;6.378;2023-02-12T05:46:33;4.70;99.90
53776;DHT22;44276;49.534;6.378;2023-02-12T05:49:01;4.70;99.90
53776;DHT22;44276;49.534;6.378;2023-02-12T05:51:29;4.70;99.90
53776;DHT22;44276;49.534;6.378;2023-02-12T05:54:01;4.80;99.90
53776;DHT22;44276;49.534;6.378;2023-02-12T05:56:32;4.70;99.90
53776;DHT22;44276;49.534;6.378;2023-02-12T05:59:05;4.70;99.90
53776;DHT22;44276;49.534;6.378;2023-02-12T06:01:37;4.70;99.90
53776;DHT22;44276;49.534;6.378;2023-02-12T06:04:12;4.80;99.90
53776;DHT22;44276;49.534;6.378;2023-02-12T06:06:41;4.70;99.90
53776;DHT22;44276;49.534;6.378;2023-02-12T06:09:11;4.70;99.90
53776;DHT22;44276;49.534;6.378;2023-02-12T06:11:40;4.70;99.90
53776;DHT22;44276;49.534;6.378;2023-02-12T06:14:13;4.70;99.90
53776;DHT22;44276;49.534;6.378;2023-02-12T06:16:44;4.80;99.90
53776;DHT22;44276;49.534;6.378;2023-02-12T06:19:13;4.70;99.90
53776;DHT22;44276;49.534;6.378;2023-02-12T06:21:41;4.80;99.90
53776;DHT22;44276;49.534;6.378;2023-02-12T06:24:11;4.80;99.90
53776;DHT22;44276;49.534;6.378;2023-02-12T06:26:40;4.80;99.90
53776;DHT22;44276;49.534;6.378;2023-02-12T06:29:11;4.80;99.90
53776;DHT22;44276;49.534;6.378;2023-02-12T06:31:40;4.70;99.90
53776;DHT22;44276;49.534;6.378;2023-02-12T06:34:10;4.70;99.90
53776;DHT22;44276;49.534;6.378;2023-02-12T06:36:40;4.70;99.90
53776;DHT22;44276;49.534;6.378;2023-02-12T06:39:10;4.70;99.90
53776;DHT22;44276;49.534;6.378;2023-02-12T06:41:40;4.70;99.90
53776;DHT22;44276;49.534;6.378;2023-02-12T06:44:12;4.70;99.90
53776;DHT22;44276;49.534;6.378;2023-02-12T06:46:40;4.80;99.90
53776;DHT22;44276;49.534;6.378;2023-02-12T06:49:11;4.80;99.90
53776;DHT22;44276;49.534;6.378;2023-02-12T06:51:40;4.80;99.90
53776;DHT22;44276;49.534;6.378;2023-02-12T06:54:11;4.80;99.90
53776;DHT22;44276;49.534;6.378;2023-02-12T06:56:40;4.80;99.90
53776;DHT22;44276;49.534;6.378;2023-02-12T06:59:13;4.90;99.90
53776;DHT22;44276;49.534;6.378;2023-02-12T07:01:43;4.90;99.90
53776;DHT22;44276;49.534;6.378;2023-02-12T07:04:12;4.90;99.90
53776;DHT22;44276;49.534;6.378;2023-02-12T07:06:40;4.90;99.90
53776;DHT22;44276;49.534;6.378;2023-02-12T07:09:08;4.90;99.90
53776;DHT22;44276;49.534;6.378;2023-02-12T07:11:36;4.90;99.90
53776;DHT22;44276;49.534;6.378;2023-02-12T07:14:05;4.90;99.90
53776;DHT22;44276;49.534;6.378;2023-02-12T07:16:35;5.00;99.90
53776;DHT22;44276;49.534;6.378;2023-02-12T07:19:03;5.00;99.90
53776;DHT22;44276;49.534;6.378;2023-02-12T07:21:31;5.00;99.90
53776;DHT22;44276;49.534;6.378;2023-02-12T07:24:00;5.10;99.90
53776;DHT22;44276;49.534;6.378;2023-02-12T07:26:28;5.10;99.90
53776;DHT22;44276;49.534;6.378;2023-02-12T07:28:56;5.20;99.90
53776;DHT22;44276;49.534;6.378;2023-02-12T07:31:25;5.20;99.90
53776;DHT22;44276;49.534;6.378;2023-02-12T07:33:55;5.30;99.90
53776;DHT22;44276;49.534;6.378;2023-02-12T07:36:27;5.30;99.90
53776;DHT22;44276;49.534;6.378;2023-02-12T07:38:57;5.40;99.90
53776;DHT22;44276;49.534;6.378;2023-02-12T07:41:27;5.40;99.90
53776;DHT22;44276;49.534;6.378;2023-02-12T07:43:58;5.40;99.90
53776;DHT22;44276;49.534;6.378;2023-02-12T07:46:31;5.50;99.90
53776;DHT22;44276;49.534;6.378;2023-02-12T07:49:04;5.50;99.90
53776;DHT22;44276;49.534;6.378;2023-02-12T07:51:34;5.60;99.90
53776;DHT22;44276;49.534;6.378;2023-02-12T07:54:03;5.70;99.90
53776;DHT22;44276;49.534;6.378;2023-02-12T07:56:34;5.80;99.90
53776;DHT22;44276;49.534;6.378;2023-02-12T07:59:08;5.80;99.90
53776;DHT22;44276;49.534;6.378;2023-02-12T08:01:39;5.90;99.90
53776;DHT22;44276;49.534;6.378;2023-02-12T08:04:11;6.00;99.90
53776;DHT22;44276;49.534;6.378;2023-02-12T08:06:43;6.10;99.90
53776;DHT22;44276;49.534;6.378;2023-02-12T08:09:15;6.20;99.90
53776;DHT22;44276;49.534;6.378;2023-02-12T08:11:44;6.20;99.90
53776;DHT22;44276;49.534;6.378;2023-02-12T08:14:14;6.30;99.90
53776;DHT22;44276;49.534;6.378;2023-02-12T08:16:45;6.40;99.90
53776;DHT22;44276;49.534;6.378;2023-02-12T08:19:16;6.60;99.90
53776;DHT22;44276;49.534;6.378;2023-02-12T08:21:52;6.70;99.90
53776;DHT22;44276;49.534;6.378;2023-02-12T08:24:22;6.80;99.90
53776;DHT22;44276;49.534;6.378;2023-02-12T08:26:50;7.00;99.90
53776;DHT22;44276;49.534;6.378;2023-02-12T08:29:20;7.10;99.90
53776;DHT22;44276;49.534;6.378;2023-02-12T08:31:54;7.10;99.90
53776;DHT22;44276;49.534;6.378;2023-02-12T08:34:26;7.20;99.90
53776;DHT22;44276;49.534;6.378;2023-02-12T08:36:56;7.40;99.90
53776;DHT22;44276;49.534;6.378;2023-02-12T08:39:26;7.40;99.90
53776;DHT22;44276;49.534;6.378;2023-02-12T08:41:57;7.60;99.90
53776;DHT22;44276;49.534;6.378;2023-02-12T08:44:26;7.70;99.90
53776;DHT22;44276;49.534;6.378;2023-02-12T08:46:55;7.90;99.90
53776;DHT22;44276;49.534;6.378;2023-02-12T08:49:26;7.90;99.90
53776;DHT22;44276;49.534;6.378;2023-02-12T08:51:56;7.90;99.90
53776;DHT22;44276;49.534;6.378;2023-02-12T08:54:29;7.80;99.90
53776;DHT22;44276;49.534;6.378;2023-02-12T08:56:59;7.90;99.90
53776;DHT22;44276;49.534;6.378;2023-02-12T08:59:29;7.90;99.90
53776;DHT22;44276;49.534;6.378;2023-02-12T09:01:57;7.90;99.90
53776;DHT22;44276;49.534;6.378;2023-02-12T09:04:27;7.90;99.90
53776;DHT22;44276;49.534;6.378;2023-02-12T09:06:56;8.00;99.90
53776;DHT22;44276;49.534;6.378;2023-02-12T09:09:24;8.10;99.90
53776;DHT22;44276;49.534;6.378;2023-02-12T09:11:52;8.20;99.90
53776;DHT22;44276;49.534;6.378;2023-02-12T09:14:20;8.30;99.90
53776;DHT22;44276;49.534;6.378;2023-02-12T09:16:51;8.40;99.90
53776;DHT22;44276;49.534;6.378;2023-02-12T09:19:20;8.70;99.90
53776;DHT22;44276;49.534;6.378;2023-02-12T09:21:54;8.90;99.90
53776;DHT22;44276;49.534;6.378;2023-02-12T09:24:23;9.00;99.90
53776;DHT22;44276;49.534;6.378;2023-02-12T09:26:54;8.90;99.90
53776;DHT22;44276;49.534;6.378;2023-02-12T09:29:22;8.90;99.90
53776;DHT22;44276;49.534;6.378;2023-02-12T09:31:50;9.00;99.90
53776;DHT22;44276;49.534;6.378;2023-02-12T09:34:18;9.20;99.90
53776;DHT22;44276;49.534;6.378;2023-02-12T09:36:46;9.50;92.30
53776;DHT22;44276;49.534;6.378;2023-02-12T09:39:16;9.90;87.70
53776;DHT22;44276;49.534;6.378;2023-02-12T09:42:26;10.10;74.00
53776;DHT22;44276;49.534;6.378;2023-02-12T09:45:12;10.10;72.60
53776;DHT22;44276;49.534;6.378;2023-02-12T09:47:50;10.50;65.40
53776;DHT22;44276;49.534;6.378;2023-02-12T09:50:32;10.70;60.50
53776;DHT22;44276;49.534;6.378;2023-02-12T09:53:10;10.40;61.70
53776;DHT22;44276;49.534;6.378;2023-02-12T09:55:42;10.30;66.40
53776;DHT22;44276;49.534;6.378;2023-02-12T09:58:13;10.10;68.60
53776;DHT22;44276;49.534;6.378;2023-02-12T10:00:44;10.10;69.30
53776;DHT22;44276;49.534;6.378;2023-02-12T10:03:14;10.10;69.30
53776;DHT22;44276;49.534;6.378;2023-02-12T10:05:46;10.00;71.90
53776;DHT22;44276;49.534;6.378;2023-02-12T10:08:40;10.00;74.70
53776;DHT22;44276;49.534;6.378;2023-02-12T10:17:35;10.40;68.50
53776;DHT22;44276;49.534;6.378;2023-02-12T10:20:26;10.60;64.60
53776;DHT22;44276;49.534;6.378;2023-02-12T10:23:24;10.70;64.40
53776;DHT22;44276;49.534;6.378;2023-02-12T10:26:08;10.80;61.30
53776;DHT22;44276;49.534;6.378;2023-02-12T10:28:45;10.90;60.60
53776;DHT22;44276;49.534;6.378;2023-02-12T10:31:20;10.90;61.00
53776;DHT22;44276;49.534;6.378;2023-02-12T10:33:56;10.90;60.30
53776;DHT22;44276;49.534;6.378;2023-02-12T10:36:36;11.10;59.90
53776;DHT22;44276;49.534;6.378;2023-02-12T10:39:13;11.50;56.70
53776;DHT22;44276;49.534;6.378;2023-02-12T10:41:48;11.70;51.80
53776;DHT22;44276;49.534;6.378;2023-02-12T10:44:26;11.80;47.50
53776;DHT22;44276;49.534;6.378;2023-02-12T10:46:55;11.70;49.10
53776;DHT22;44276;49.534;6.378;2023-02-12T10:49:23;11.60;48.80
53776;DHT22;44276;49.534;6.378;2023-02-12T10:52:06;11.60;50.90
53776;DHT22;44276;49.534;6.378;2023-02-12T10:54:41;11.50;49.70
53776;DHT22;44276;49.534;6.378;2023-02-12T10:57:14;11.50;51.80
53776;DHT22;44276;49.534;6.378;2023-02-12T10:59:50;11.80;48.80
53776;DHT22;44276;49.534;6.378;2023-02-12T11:02:25;11.90;47.10
53776;DHT22;44276;49.534;6.378;2023-02-12T11:04:56;12.00;47.10
53776;DHT22;44276;49.534;6.378;2023-02-12T11:07:26;11.90;47.00
53776;DHT22;44276;49.534;6.378;2023-02-12T11:09:56;12.10;47.20
53776;DHT22;44276;49.534;6.378;2023-02-12T11:12:32;12.00;47.00
53776;DHT22;44276;49.534;6.378;2023-02-12T11:15:12;12.00;46.20
53776;DHT22;44276;49.534;6.378;2023-02-12T11:17:44;11.90;46.80
53776;DHT22;44276;49.534;6.378;2023-02-12T11:20:24;11.60;49.40
53776;DHT22;44276;49.534;6.378;2023-02-12T11:22:57;11.60;49.20
53776;DHT22;44276;49.534;6.378;2023-02-12T11:25:28;12.00;47.90
53776;DHT22;44276;49.534;6.378;2023-02-12T11:28:05;12.10;45.60
53776;DHT22;44276;49.534;6.378;2023-02-12T11:30:54;12.00;47.00
53776;DHT22;44276;49.534;6.378;2023-02-12T11:33:27;11.70;48.20
53776;DHT22;44276;49.534;6.378;2023-02-12T11:36:03;11.60;50.50
53776;DHT22;44276;49.534;6.378;2023-02-12T11:38:47;11.90;47.90
53776;DHT22;44276;49.534;6.378;2023-02-12T11:41:25;12.30;45.00
53776;DHT22;44276;49.534;6.378;2023-02-12T11:44:01;12.30;42.70
53776;DHT22;44276;49.534;6.378;2023-02-12T11:46:37;11.90;45.40
53776;DHT22;44276;49.534;6.378;2023-02-12T11:49:06;11.50;46.70
53776;DHT22;44276;49.534;6.378;2023-02-12T11:51:36;11.40;46.40
53776;DHT22;44276;49.534;6.378;2023-02-12T11:54:04;11.30;49.80
53776;DHT22;44276;49.534;6.378;2023-02-12T11:56:41;11.20;51.30
53776;DHT22;44276;49.534;6.378;2023-02-12T11:59:22;11.60;49.70
53776;DHT22;44276;49.534;6.378;2023-02-12T12:02:00;12.30;43.40
53776;DHT22;44276;49.534;6.378;2023-02-12T12:04:43;12.20;41.20
53776;DHT22;44276;49.534;6.378;2023-02-12T12:07:19;12.10;41.30
53776;DHT22;44276;49.534;6.378;2023-02-12T12:09:57;12.30;41.20
53776;DHT22;44276;49.534;6.378;2023-02-12T12:12:37;12.20;40.30
53776;DHT22;44276;49.534;6.378;2023-02-12T12:15:16;12.10;41.30
53776;DHT22;44276;49.534;6.378;2023-02-12T12:18:19;12.10;41.20
53776;DHT22;44276;49.534;6.378;2023-02-12T12:21:15;12.20;40.10
53776;DHT22;44276;49.534;6.378;2023-02-12T12:23:52;12.60;39.40
53776;DHT22;44276;49.534;6.378;2023-02-12T12:26:27;13.00;36.20
53776;DHT22;44276;49.534;6.378;2023-02-12T12:29:02;12.80;35.80
53776;DHT22;44276;49.534;6.378;2023-02-12T12:31:38;12.90;36.10
53776;DHT22;44276;49.534;6.378;2023-02-12T12:34:12;13.20;34.90
53776;DHT22;44276;49.534;6.378;2023-02-12T12:37:06;13.10;35.80
53776;DHT22;44276;49.534;6.378;2023-02-12T12:40:15;12.90;37.30
53776;DHT22;44276;49.534;6.378;2023-02-12T12:43:10;13.00;36.20
53776;DHT22;44276;49.534;6.378;2023-02-12T12:46:13;12.60;37.30
53776;DHT22;44276;49.534;6.378;2023-02-12T12:49:24;12.30;39.40
53776;DHT22;44276;49.534;6.378;2023-02-12T12:52:22;13.10;36.80
53776;DHT22;44276;49.534;6.378;2023-02-12T12:55:29;13.30;35.50
53776;DHT22;44276;49.534;6.378;2023-02-12T12:58:17;12.60;36.60
53776;DHT22;44276;49.534;6.378;2023-02-12T13:01:09;11.80;40.70
53776;DHT22;44276;49.534;6.378;2023-02-12T13:04:03;11.80;42.50
53776;DHT22;44276;49.534;6.378;2023-02-12T13:07:05;11.60;44.20
53776;DHT22;44276;49.534;6.378;2023-02-12T13:10:02;11.30;45.70
53776;DHT22;44276;49.534;6.378;2023-02-12T13:12:52;11.40;45.90
53776;DHT22;44276;49.534;6.378;2023-02-12T13:15:32;12.00;43.80
53776;DHT22;44276;49.534;6.378;2023-02-12T13:18:14;12.20;40.60
53776;DHT22;44276;49.534;6.378;2023-02-12T13:20:52;12.20;40.40
53776;DHT22;44276;49.534;6.378;2023-02-12T13:23:35;12.50;39.30
53776;DHT22;44276;49.534;6.378;2023-02-12T13:26:14;12.90;36.90
53776;DHT22;44276;49.534;6.378;2023-02-12T13:28:52;13.20;35.30
53776;DHT22;44276;49.534;6.378;2023-02-12T13:31:26;13.30;34.50
53776;DHT22;44276;49.534;6.378;2023-02-12T13:34:01;13.80;33.60
53776;DHT22;44276;49.534;6.378;2023-02-12T13:36:34;13.90;31.80
53776;DHT22;44276;49.534;6.378;2023-02-12T13:39:11;13.70;33.10
53776;DHT22;44276;49.534;6.378;2023-02-12T13:41:58;13.80;33.20
53776;DHT22;44276;49.534;6.378;2023-02-12T13:44:45;14.40;30.20
53776;DHT22;44276;49.534;6.378;2023-02-12T13:47:30;14.40;30.40
53776;DHT22;44276;49.534;6.378;2023-02-12T13:50:15;14.40;29.70
53776;DHT22;44276;49.534;6.378;2023-02-12T13:52:58;14.30;30.90
53776;DHT22;44276;49.534;6.378;2023-02-12T13:55:38;14.50;30.00
53776;DHT22;44276;49.534;6.378;2023-02-12T13:58:49;14.80;29.60
53776;DHT22;44276;49.534;6.378;2023-02-12T14:01:41;15.20;29.00
53776;DHT22;44276;49.534;6.378;2023-02-12T14:04:25;15.40;27.90
53776;DHT22;44276;49.534;6.378;2023-02-12T14:06:59;15.30;27.90
53776;DHT22;44276;49.534;6.378;2023-02-12T14:09:35;15.40;28.00
53776;DHT22;44276;49.534;6.378;2023-02-12T14:12:10;15.00;29.20
53776;DHT22;44276;49.534;6.378;2023-02-12T14:14:44;14.10;30.00
53776;DHT22;44276;49.534;6.378;2023-02-12T14:17:50;13.50;32.60
53776;DHT22;44276;49.534;6.378;2023-02-12T14:20:26;13.80;31.50
53776;DHT22;44276;49.534;6.378;2023-02-12T14:22:58;13.90;31.30
53776;DHT22;44276;49.534;6.378;2023-02-12T14:25:36;13.60;32.60
53776;DHT22;44276;49.534;6.378;2023-02-12T14:28:17;13.20;33.20
53776;DHT22;44276;49.534;6.378;2023-02-12T14:37:17;13.10;34.50
53776;DHT22;44276;49.534;6.378;2023-02-12T14:40:38;13.30;33.80
53776;DHT22;44276;49.534;6.378;2023-02-12T14:43:28;13.50;32.20
53776;DHT22;44276;49.534;6.378;2023-02-12T14:49:18;13.30;33.10
53776;DHT22;44276;49.534;6.378;2023-02-12T14:51:55;12.90;33.40
53776;DHT22;44276;49.534;6.378;2023-02-12T14:54:29;12.70;35.00
53776;DHT22;44276;49.534;6.378;2023-02-12T14:57:04;12.60;35.50
53776;DHT22;44276;49.534;6.378;2023-02-12T14:59:39;12.30;36.50
53776;DHT22;44276;49.534;6.378;2023-02-12T15:02:16;12.20;38.00
53776;DHT22;44276;49.534;6.378;2023-02-12T15:04:51;12.20;37.60
53776;DHT22;44276;49.534;6.378;2023-02-12T15:07:26;12.10;38.30
53776;DHT22;44276;49.534;6.378;2023-02-12T15:10:00;11.90;38.70
53776;DHT22;44276;49.534;6.378;2023-02-12T15:12:38;11.70;40.20
53776;DHT22;44276;49.534;6.378;2023-02-12T15:15:17;11.70;41.00
53776;DHT22;44276;49.534;6.378;2023-02-12T15:17:55;11.90;40.20
53776;DHT22;44276;49.534;6.378;2023-02-12T15:20:32;11.80;40.90
53776;DHT22;44276;49.534;6.378;2023-02-12T15:23:37;11.60;41.20
53776;DHT22;44276;49.534;6.378;2023-02-12T15:26:13;11.50;42.80
53776;DHT22;44276;49.534;6.378;2023-02-12T15:28:45;11.50;42.90
53776;DHT22;44276;49.534;6.378;2023-02-12T15:31:18;11.60;42.40
53776;DHT22;44276;49.534;6.378;2023-02-12T15:33:51;11.50;43.00
53776;DHT22;44276;49.534;6.378;2023-02-12T15:36:23;11.50;42.50
53776;DHT22;44276;49.534;6.378;2023-02-12T15:38:54;11.30;43.30
53776;DHT22;44276;49.534;6.378;2023-02-12T15:41:33;11.30;44.50
53776;DHT22;44276;49.534;6.378;2023-02-12T15:44:27;11.30;44.60
53776;DHT22;44276;49.534;6.378;2023-02-12T15:47:01;11.30;44.00
53776;DHT22;44276;49.534;6.378;2023-02-12T15:49:39;11.30;44.20
53776;DHT22;44276;49.534;6.378;2023-02-12T15:52:14;11.30;44.50
53776;DHT22;44276;49.534;6.378;2023-02-12T15:54:46;11.10;45.40
53776;DHT22;44276;49.534;6.378;2023-02-12T15:57:20;10.90;46.00
53776;DHT22;44276;49.534;6.378;2023-02-12T15:59:50;10.70;49.30
53776;DHT22;44276;49.534;6.378;2023-02-12T16:02:25;10.60;50.10
53776;DHT22;44276;49.534;6.378;2023-02-12T16:04:56;10.50;53.40
53776;DHT22;44276;49.534;6.378;2023-02-12T16:07:29;10.30;56.30
53776;DHT22;44276;49.534;6.378;2023-02-12T16:10:02;10.30;58.10
53776;DHT22;44276;49.534;6.378;2023-02-12T16:12:33;10.20;60.70
53776;DHT22;44276;49.534;6.378;2023-02-12T16:15:04;10.00;63.60
53776;DHT22;44276;49.534;6.378;2023-02-12T16:17:34;9.90;67.10
53776;DHT22;44276;49.534;6.378;2023-02-12T16:20:05;9.70;70.60
53776;DHT22;44276;49.534;6.378;2023-02-12T16:22:50;9.50;75.90
53776;DHT22;44276;49.534;6.378;2023-02-12T16:25:22;9.30;81.20
53776;DHT22;44276;49.534;6.378;2023-02-12T16:27:57;9.10;89.20
53776;DHT22;44276;49.534;6.378;2023-02-12T16:30:30;8.90;93.60
53776;DHT22;44276;49.534;6.378;2023-02-12T16:33:01;8.60;99.90
53776;DHT22;44276;49.534;6.378;2023-02-12T16:35:31;8.10;99.90
53776;DHT22;44276;49.534;6.378;2023-02-12T16:38:03;7.80;99.90
53776;DHT22;44276;49.534;6.378;2023-02-12T16:41:18;7.40;99.90
53776;DHT22;44276;49.534;6.378;2023-02-12T16:43:51;6.90;99.90
53776;DHT22;44276;49.534;6.378;2023-02-12T16:46:54;6.60;99.90
53776;DHT22;44276;49.534;6.378;2023-02-12T16:49:25;6.30;99.90